sensor_id;sensor_type;location;lat;lon;timestamp;P1;durP1;ratioP1;P2;durP2;ratioP2
27804;SDS011;15183;51.350;11.102;2024-02-16T00:00:08;28.98;;;15.30;;
27804;SDS011;15183;51.350;11.102;2024-02-16T00:02:38;24.60;;;14.07;;
27804;SDS011;15183;51.350;11.102;2024-02-16T00:05:06;19.67;;;12.68;;
27804;SDS011;15183;51.350;11.102;2024-02-16T00:07:33;25.60;;;13.05;;
27804;SDS011;15183;51.350;11.102;2024-02-16T00:10:00;24.95;;;13.05;;
27804;SDS011;15183;51.350;11.102;2024-02-16T00:12:26;16.70;;;9.82;;
27804;SDS011;15183;51.350;11.102;2024-02-16T00:14:53;13.07;;;7.43;;
27804;SDS011;15183;51.350;11.102;2024-02-16T00:17:19;12.38;;;6.65;;
27804;SDS011;15183;51.350;11.102;2024-02-16T00:19:47;12.23;;;7.60;;
27804;SDS011;15183;51.350;11.102;2024-02-16T00:22:17;15.98;;;8.93;;
27804;SDS011;15183;51.350;11.102;2024-02-16T00:24:43;20.75;;;11.40;;
27804;SDS011;15183;51.350;11.102;2024-02-16T00:27:10;20.15;;;11.85;;
27804;SDS011;15183;51.350;11.102;2024-02-16T00:29:36;15.88;;;10.27;;
27804;SDS011;15183;51.350;11.102;2024-02-16T00:32:06;12.10;;;6.03;;
27804;SDS011;15183;51.350;11.102;2024-02-16T00:34:33;14.35;;;8.68;;
27804;SDS011;15183;51.350;11.102;2024-02-16T00:37:01;10.27;;;6.30;;
27804;SDS011;15183;51.350;11.102;2024-02-16T00:39:30;9.30;;;5.20;;
27804;SDS011;15183;51.350;11.102;2024-02-16T00:41:57;8.77;;;6.07;;
27804;SDS011;15183;51.350;11.102;2024-02-16T00:44:23;11.55;;;8.55;;
27804;SDS011;15183;51.350;11.102;2024-02-16T00:46:50;13.40;;;8.90;;
27804;SDS011;15183;51.350;11.102;2024-02-16T00:49:16;8.57;;;7.05;;
27804;SDS011;15183;51.350;11.102;2024-02-16T00:51:43;7.68;;;4.78;;
27804;SDS011;15183;51.350;11.102;2024-02-16T00:54:09;7.88;;;4.80;;
27804;SDS011;15183;51.350;11.102;2024-02-16T00:56:36;7.18;;;4.10;;
27804;SDS011;15183;51.350;11.102;2024-02-16T00:59:04;7.00;;;3.45;;
27804;SDS011;15183;51.350;11.102;2024-02-16T01:01:31;5.20;;;3.47;;
27804;SDS011;15183;51.350;11.102;2024-02-16T01:03:57;4.70;;;3.17;;
27804;SDS011;15183;51.350;11.102;2024-02-16T01:06:24;8.20;;;3.83;;
27804;SDS011;15183;51.350;11.102;2024-02-16T01:08:50;10.15;;;6.00;;
27804;SDS011;15183;51.350;11.102;2024-02-16T01:11:17;8.07;;;5.35;;
27804;SDS011;15183;51.350;11.102;2024-02-16T01:13:47;6.25;;;3.30;;
27804;SDS011;15183;51.350;11.102;2024-02-16T01:16:15;8.57;;;6.07;;
27804;SDS011;15183;51.350;11.102;2024-02-16T01:18:44;13.18;;;7.18;;
27804;SDS011;15183;51.350;11.102;2024-02-16T01:21:11;13.57;;;8.95;;
27804;SDS011;15183;51.350;11.102;2024-02-16T01:23:38;8.77;;;5.72;;
27804;SDS011;15183;51.350;11.102;2024-02-16T01:26:04;12.00;;;7.47;;
27804;SDS011;15183;51.350;11.102;2024-02-16T01:28:30;11.25;;;7.25;;
27804;SDS011;15183;51.350;11.102;2024-02-16T01:30:58;14.40;;;9.82;;
27804;SDS011;15183;51.350;11.102;2024-02-16T01:33:24;14.80;;;9.98;;
27804;SDS011;15183;51.350;11.102;2024-02-16T01:35:51;13.88;;;9.90;;
27804;SDS011;15183;51.350;11.102;2024-02-16T01:38:17;6.65;;;5.20;;
27804;SDS011;15183;51.350;11.102;2024-02-16T01:40:44;6.30;;;3.83;;
27804;SDS011;15183;51.350;11.102;2024-02-16T01:43:10;11.05;;;5.80;;
27804;SDS011;15183;51.350;11.102;2024-02-16T01:45:37;12.00;;;6.55;;
27804;SDS011;15183;51.350;11.102;2024-02-16T01:48:03;10.52;;;7.32;;
27804;SDS011;15183;51.350;11.102;2024-02-16T01:50:30;11.80;;;7.88;;
27804;SDS011;15183;51.350;11.102;2024-02-16T01:52:59;15.07;;;9.35;;
27804;SDS011;15183;51.350;11.102;2024-02-16T01:55:27;14.07;;;8.68;;
27804;SDS011;15183;51.350;11.102;2024-02-16T01:57:53;5.90;;;4.93;;
27804;SDS011;15183;51.350;11.102;2024-02-16T02:00:21;5.72;;;3.75;;
27804;SDS011;15183;51.350;11.102;2024-02-16T02:02:48;5.15;;;3.42;;
27804;SDS011;15183;51.350;11.102;2024-02-16T02:05:14;9.27;;;6.72;;
27804;SDS011;15183;51.350;11.102;2024-02-16T02:07:41;7.35;;;4.78;;
27804;SDS011;15183;51.350;11.102;2024-02-16T02:10:08;10.45;;;5.75;;
27804;SDS011;15183;51.350;11.102;2024-02-16T02:12:39;12.30;;;7.97;;
27804;SDS011;15183;51.350;11.102;2024-02-16T02:15:06;7.70;;;5.57;;
27804;SDS011;15183;51.350;11.102;2024-02-16T02:17:33;11.35;;;7.38;;
27804;SDS011;15183;51.350;11.102;2024-02-16T02:20:00;10.10;;;7.68;;
27804;SDS011;15183;51.350;11.102;2024-02-16T02:22:29;14.32;;;8.40;;
27804;SDS011;15183;51.350;11.102;2024-02-16T02:24:55;9.80;;;7.10;;
27804;SDS011;15183;51.350;11.102;2024-02-16T02:27:22;9.98;;;7.22;;
27804;SDS011;15183;51.350;11.102;2024-02-16T02:29:48;9.77;;;7.63;;
27804;SDS011;15183;51.350;11.102;2024-02-16T02:32:15;6.68;;;4.63;;
27804;SDS011;15183;51.350;11.102;2024-02-16T02:34:45;7.90;;;5.15;;
27804;SDS011;15183;51.350;11.102;2024-02-16T02:37:11;9.98;;;7.05;;
27804;SDS011;15183;51.350;11.102;2024-02-16T02:39:38;8.02;;;6.03;;
27804;SDS011;15183;51.350;11.102;2024-02-16T02:42:04;8.07;;;4.70;;
27804;SDS011;15183;51.350;11.102;2024-02-16T02:44:35;5.63;;;3.90;;
27804;SDS011;15183;51.350;11.102;2024-02-16T02:47:02;7.13;;;4.75;;
27804;SDS011;15183;51.350;11.102;2024-02-16T02:49:29;7.60;;;5.82;;
27804;SDS011;15183;51.350;11.102;2024-02-16T02:51:55;12.15;;;7.18;;
27804;SDS011;15183;51.350;11.102;2024-02-16T02:54:22;8.73;;;4.82;;
27804;SDS011;15183;51.350;11.102;2024-02-16T02:56:48;7.68;;;4.50;;
27804;SDS011;15183;51.350;11.102;2024-02-16T02:59:15;9.85;;;7.78;;
27804;SDS011;15183;51.350;11.102;2024-02-16T03:01:41;13.93;;;8.40;;
27804;SDS011;15183;51.350;11.102;2024-02-16T03:04:08;12.48;;;7.82;;
27804;SDS011;15183;51.350;11.102;2024-02-16T03:06:35;9.48;;;5.63;;
27804;SDS011;15183;51.350;11.102;2024-02-16T03:09:01;6.40;;;4.07;;
27804;SDS011;15183;51.350;11.102;2024-02-16T03:11:28;6.40;;;3.88;;
27804;SDS011;15183;51.350;11.102;2024-02-16T03:13:55;7.05;;;3.90;;
27804;SDS011;15183;51.350;11.102;2024-02-16T03:16:24;9.68;;;4.70;;
27804;SDS011;15183;51.350;11.102;2024-02-16T03:18:51;5.05;;;3.78;;
27804;SDS011;15183;51.350;11.102;2024-02-16T03:21:20;10.85;;;5.40;;
27804;SDS011;15183;51.350;11.102;2024-02-16T03:23:46;9.40;;;4.63;;
27804;SDS011;15183;51.350;11.102;2024-02-16T03:26:13;9.63;;;4.35;;
27804;SDS011;15183;51.350;11.102;2024-02-16T03:28:44;9.68;;;5.60;;
27804;SDS011;15183;51.350;11.102;2024-02-16T03:31:23;9.75;;;6.03;;
27804;SDS011;15183;51.350;11.102;2024-02-16T03:33:50;4.85;;;3.40;;
27804;SDS011;15183;51.350;11.102;2024-02-16T03:36:18;5.18;;;2.92;;
27804;SDS011;15183;51.350;11.102;2024-02-16T03:38:45;8.55;;;5.38;;
27804;SDS011;15183;51.350;11.102;2024-02-16T03:41:19;7.22;;;5.57;;
27804;SDS011;15183;51.350;11.102;2024-02-16T03:43:47;6.65;;;4.95;;
27804;SDS011;15183;51.350;11.102;2024-02-16T03:46:14;8.57;;;5.50;;
27804;SDS011;15183;51.350;11.102;2024-02-16T03:48:42;10.40;;;5.47;;
27804;SDS011;15183;51.350;11.102;2024-02-16T03:51:10;10.98;;;6.05;;
27804;SDS011;15183;51.350;11.102;2024-02-16T03:53:36;8.10;;;5.78;;
27804;SDS011;15183;51.350;11.102;2024-02-16T03:56:03;7.25;;;4.80;;
27804;SDS011;15183;51.350;11.102;2024-02-16T03:58:31;9.45;;;6.28;;
27804;SDS011;15183;51.350;11.102;2024-02-16T04:00:58;7.65;;;5.63;;
27804;SDS011;15183;51.350;11.102;2024-02-16T04:03:25;9.48;;;5.30;;
27804;SDS011;15183;51.350;11.102;2024-02-16T04:05:51;6.25;;;4.00;;
27804;SDS011;15183;51.350;11.102;2024-02-16T04:08:18;7.35;;;3.53;;
27804;SDS011;15183;51.350;11.102;2024-02-16T04:10:45;9.95;;;4.80;;
27804;SDS011;15183;51.350;11.102;2024-02-16T04:13:14;8.30;;;4.75;;
27804;SDS011;15183;51.350;11.102;2024-02-16T04:15:41;5.97;;;3.63;;
27804;SDS011;15183;51.350;11.102;2024-02-16T04:18:07;5.35;;;2.80;;
27804;SDS011;15183;51.350;11.102;2024-02-16T04:20:35;5.13;;;3.50;;
27804;SDS011;15183;51.350;11.102;2024-02-16T04:23:03;4.30;;;3.17;;
27804;SDS011;15183;51.350;11.102;2024-02-16T04:25:30;5.63;;;3.30;;
27804;SDS011;15183;51.350;11.102;2024-02-16T04:27:56;8.73;;;5.85;;
27804;SDS011;15183;51.350;11.102;2024-02-16T04:30:22;7.68;;;5.88;;
27804;SDS011;15183;51.350;11.102;2024-02-16T04:32:49;11.70;;;6.72;;
27804;SDS011;15183;51.350;11.102;2024-02-16T04:35:15;12.50;;;7.88;;
27804;SDS011;15183;51.350;11.102;2024-02-16T04:37:42;10.02;;;8.05;;
27804;SDS011;15183;51.350;11.102;2024-02-16T04:40:09;10.43;;;7.72;;
27804;SDS011;15183;51.350;11.102;2024-02-16T04:42:38;7.97;;;4.95;;
27804;SDS011;15183;51.350;11.102;2024-02-16T04:45:06;9.00;;;5.97;;
27804;SDS011;15183;51.350;11.102;2024-02-16T04:47:33;7.50;;;5.15;;
27804;SDS011;15183;51.350;11.102;2024-02-16T04:50:00;10.02;;;6.03;;
27804;SDS011;15183;51.350;11.102;2024-02-16T04:52:26;5.93;;;4.07;;
27804;SDS011;15183;51.350;11.102;2024-02-16T04:54:53;8.00;;;5.43;;
27804;SDS011;15183;51.350;11.102;2024-02-16T04:57:19;5.35;;;3.40;;
27804;SDS011;15183;51.350;11.102;2024-02-16T04:59:46;7.05;;;3.40;;
27804;SDS011;15183;51.350;11.102;2024-02-16T05:02:13;7.88;;;5.30;;
27804;SDS011;15183;51.350;11.102;2024-02-16T05:04:39;5.03;;;3.42;;
27804;SDS011;15183;51.350;11.102;2024-02-16T05:07:05;11.35;;;5.20;;
27804;SDS011;15183;51.350;11.102;2024-02-16T05:09:33;8.55;;;5.88;;
27804;SDS011;15183;51.350;11.102;2024-02-16T05:11:59;9.60;;;7.03;;
27804;SDS011;15183;51.350;11.102;2024-02-16T05:14:26;12.88;;;8.75;;
27804;SDS011;15183;51.350;11.102;2024-02-16T05:16:53;13.00;;;8.20;;
27804;SDS011;15183;51.350;11.102;2024-02-16T05:19:20;12.50;;;8.20;;
27804;SDS011;15183;51.350;11.102;2024-02-16T05:21:46;20.17;;;11.68;;
27804;SDS011;15183;51.350;11.102;2024-02-16T05:24:13;41.65;;;19.15;;
27804;SDS011;15183;51.350;11.102;2024-02-16T05:26:39;28.98;;;14.57;;
27804;SDS011;15183;51.350;11.102;2024-02-16T05:29:05;21.45;;;11.07;;
27804;SDS011;15183;51.350;11.102;2024-02-16T05:31:32;20.55;;;11.93;;
27804;SDS011;15183;51.350;11.102;2024-02-16T05:33:58;17.73;;;10.55;;
27804;SDS011;15183;51.350;11.102;2024-02-16T05:36:25;18.92;;;10.50;;
27804;SDS011;15183;51.350;11.102;2024-02-16T05:38:55;16.13;;;8.73;;
27804;SDS011;15183;51.350;11.102;2024-02-16T05:41:25;10.88;;;5.95;;
27804;SDS011;15183;51.350;11.102;2024-02-16T05:43:51;12.93;;;7.70;;
27804;SDS011;15183;51.350;11.102;2024-02-16T05:46:17;17.55;;;10.68;;
27804;SDS011;15183;51.350;11.102;2024-02-16T05:48:44;12.48;;;7.82;;
27804;SDS011;15183;51.350;11.102;2024-02-16T05:51:11;83.80;;;49.20;;
27804;SDS011;15183;51.350;11.102;2024-02-16T05:53:38;103.65;;;63.58;;
27804;SDS011;15183;51.350;11.102;2024-02-16T05:56:06;41.33;;;27.02;;
27804;SDS011;15183;51.350;11.102;2024-02-16T05:58:33;33.35;;;22.10;;
27804;SDS011;15183;51.350;11.102;2024-02-16T06:00:59;25.30;;;17.85;;
27804;SDS011;15183;51.350;11.102;2024-02-16T06:03:26;21.67;;;14.02;;
27804;SDS011;15183;51.350;11.102;2024-02-16T06:05:53;21.13;;;14.13;;
27804;SDS011;15183;51.350;11.102;2024-02-16T06:08:19;18.90;;;12.40;;
27804;SDS011;15183;51.350;11.102;2024-02-16T06:10:46;16.67;;;12.20;;
27804;SDS011;15183;51.350;11.102;2024-02-16T06:13:20;17.83;;;11.55;;
27804;SDS011;15183;51.350;11.102;2024-02-16T06:15:47;19.90;;;11.40;;
27804;SDS011;15183;51.350;11.102;2024-02-16T06:18:14;15.82;;;10.18;;
27804;SDS011;15183;51.350;11.102;2024-02-16T06:20:40;13.85;;;9.25;;
27804;SDS011;15183;51.350;11.102;2024-02-16T06:23:07;39.42;;;23.70;;
27804;SDS011;15183;51.350;11.102;2024-02-16T06:25:34;22.60;;;15.48;;
27804;SDS011;15183;51.350;11.102;2024-02-16T06:28:01;24.45;;;14.80;;
27804;SDS011;15183;51.350;11.102;2024-02-16T06:30:28;16.98;;;11.70;;
27804;SDS011;15183;51.350;11.102;2024-02-16T06:32:54;14.50;;;10.38;;
27804;SDS011;15183;51.350;11.102;2024-02-16T06:35:21;13.02;;;9.77;;
27804;SDS011;15183;51.350;11.102;2024-02-16T06:37:49;12.30;;;8.88;;
27804;SDS011;15183;51.350;11.102;2024-02-16T06:40:15;16.30;;;9.95;;
27804;SDS011;15183;51.350;11.102;2024-02-16T06:42:43;17.27;;;11.27;;
27804;SDS011;15183;51.350;11.102;2024-02-16T06:45:09;15.48;;;10.32;;
27804;SDS011;15183;51.350;11.102;2024-02-16T06:47:36;20.02;;;13.98;;
27804;SDS011;15183;51.350;11.102;2024-02-16T06:50:03;21.30;;;13.30;;
27804;SDS011;15183;51.350;11.102;2024-02-16T06:52:30;21.75;;;14.10;;
27804;SDS011;15183;51.350;11.102;2024-02-16T06:54:56;26.77;;;17.60;;
27804;SDS011;15183;51.350;11.102;2024-02-16T06:57:23;34.90;;;23.13;;
27804;SDS011;15183;51.350;11.102;2024-02-16T06:59:51;30.20;;;20.33;;
27804;SDS011;15183;51.350;11.102;2024-02-16T07:02:19;21.73;;;15.30;;
27804;SDS011;15183;51.350;11.102;2024-02-16T07:04:45;27.27;;;16.58;;
27804;SDS011;15183;51.350;11.102;2024-02-16T07:07:11;21.15;;;12.65;;
27804;SDS011;15183;51.350;11.102;2024-02-16T07:09:38;25.02;;;15.00;;
27804;SDS011;15183;51.350;11.102;2024-02-16T07:12:05;21.00;;;13.68;;
27804;SDS011;15183;51.350;11.102;2024-02-16T07:14:32;17.25;;;12.30;;
27804;SDS011;15183;51.350;11.102;2024-02-16T07:16:59;23.13;;;14.40;;
27804;SDS011;15183;51.350;11.102;2024-02-16T07:19:26;15.85;;;10.82;;
27804;SDS011;15183;51.350;11.102;2024-02-16T07:21:52;18.30;;;11.98;;
27804;SDS011;15183;51.350;11.102;2024-02-16T07:24:18;20.67;;;14.50;;
27804;SDS011;15183;51.350;11.102;2024-02-16T07:26:45;18.00;;;12.00;;
27804;SDS011;15183;51.350;11.102;2024-02-16T07:29:11;16.40;;;9.43;;
27804;SDS011;15183;51.350;11.102;2024-02-16T07:31:42;19.48;;;12.80;;
27804;SDS011;15183;51.350;11.102;2024-02-16T07:34:08;16.65;;;11.40;;
27804;SDS011;15183;51.350;11.102;2024-02-16T07:36:37;24.83;;;15.55;;
27804;SDS011;15183;51.350;11.102;2024-02-16T07:39:03;22.77;;;14.77;;
27804;SDS011;15183;51.350;11.102;2024-02-16T07:41:30;19.90;;;12.13;;
27804;SDS011;15183;51.350;11.102;2024-02-16T07:43:56;12.65;;;8.95;;
27804;SDS011;15183;51.350;11.102;2024-02-16T07:46:23;12.75;;;7.95;;
27804;SDS011;15183;51.350;11.102;2024-02-16T07:48:49;19.17;;;12.48;;
27804;SDS011;15183;51.350;11.102;2024-02-16T07:51:16;12.85;;;8.90;;
27804;SDS011;15183;51.350;11.102;2024-02-16T07:53:42;13.25;;;8.77;;
27804;SDS011;15183;51.350;11.102;2024-02-16T07:56:12;11.50;;;7.30;;
27804;SDS011;15183;51.350;11.102;2024-02-16T07:58:40;10.20;;;7.38;;
27804;SDS011;15183;51.350;11.102;2024-02-16T08:01:09;13.20;;;8.05;;
27804;SDS011;15183;51.350;11.102;2024-02-16T08:03:40;9.52;;;6.60;;
27804;SDS011;15183;51.350;11.102;2024-02-16T08:06:07;10.32;;;5.55;;
27804;SDS011;15183;51.350;11.102;2024-02-16T08:08:33;6.85;;;5.05;;
27804;SDS011;15183;51.350;11.102;2024-02-16T08:11:00;6.65;;;4.38;;
27804;SDS011;15183;51.350;11.102;2024-02-16T08:13:26;5.38;;;3.70;;
27804;SDS011;15183;51.350;11.102;2024-02-16T08:15:52;5.30;;;3.78;;
27804;SDS011;15183;51.350;11.102;2024-02-16T08:18:19;3.65;;;3.05;;
27804;SDS011;15183;51.350;11.102;2024-02-16T08:20:45;6.50;;;2.85;;
27804;SDS011;15183;51.350;11.102;2024-02-16T08:23:12;3.65;;;3.03;;
27804;SDS011;15183;51.350;11.102;2024-02-16T08:25:38;4.70;;;3.10;;
27804;SDS011;15183;51.350;11.102;2024-02-16T08:28:05;5.07;;;3.30;;
27804;SDS011;15183;51.350;11.102;2024-02-16T08:30:31;6.80;;;4.03;;
27804;SDS011;15183;51.350;11.102;2024-02-16T08:32:59;10.05;;;6.18;;
27804;SDS011;15183;51.350;11.102;2024-02-16T08:35:25;10.27;;;7.35;;
27804;SDS011;15183;51.350;11.102;2024-02-16T08:37:52;21.73;;;14.48;;
27804;SDS011;15183;51.350;11.102;2024-02-16T08:40:19;18.48;;;12.57;;
27804;SDS011;15183;51.350;11.102;2024-02-16T08:42:46;9.52;;;6.97;;
27804;SDS011;15183;51.350;11.102;2024-02-16T08:45:13;15.02;;;10.13;;
27804;SDS011;15183;51.350;11.102;2024-02-16T08:47:41;9.40;;;7.22;;
27804;SDS011;15183;51.350;11.102;2024-02-16T08:50:07;10.32;;;7.00;;
27804;SDS011;15183;51.350;11.102;2024-02-16T08:52:35;11.68;;;6.40;;
27804;SDS011;15183;51.350;11.102;2024-02-16T08:55:01;10.93;;;5.90;;
27804;SDS011;15183;51.350;11.102;2024-02-16T08:57:28;18.35;;;9.00;;
27804;SDS011;15183;51.350;11.102;2024-02-16T08:59:54;12.50;;;7.60;;
27804;SDS011;15183;51.350;11.102;2024-02-16T09:02:21;9.82;;;4.53;;
27804;SDS011;15183;51.350;11.102;2024-02-16T09:04:48;7.88;;;4.70;;
27804;SDS011;15183;51.350;11.102;2024-02-16T09:07:14;6.40;;;4.03;;
27804;SDS011;15183;51.350;11.102;2024-02-16T09:09:41;10.07;;;5.72;;
27804;SDS011;15183;51.350;11.102;2024-02-16T09:12:07;12.30;;;7.93;;
27804;SDS011;15183;51.350;11.102;2024-02-16T09:14:34;14.40;;;8.88;;
27804;SDS011;15183;51.350;11.102;2024-02-16T09:17:00;11.38;;;7.75;;
27804;SDS011;15183;51.350;11.102;2024-02-16T09:19:27;12.02;;;8.68;;
27804;SDS011;15183;51.350;11.102;2024-02-16T09:21:53;26.08;;;16.92;;
27804;SDS011;15183;51.350;11.102;2024-02-16T09:24:20;44.83;;;29.60;;
27804;SDS011;15183;51.350;11.102;2024-02-16T09:26:47;19.02;;;13.55;;
27804;SDS011;15183;51.350;11.102;2024-02-16T09:29:14;12.23;;;8.55;;
27804;SDS011;15183;51.350;11.102;2024-02-16T09:31:41;32.33;;;19.10;;
27804;SDS011;15183;51.350;11.102;2024-02-16T09:34:07;25.63;;;16.45;;
27804;SDS011;15183;51.350;11.102;2024-02-16T09:36:34;17.73;;;10.40;;
27804;SDS011;15183;51.350;11.102;2024-02-16T09:39:04;22.33;;;14.60;;
27804;SDS011;15183;51.350;11.102;2024-02-16T09:41:34;19.77;;;13.27;;
27804;SDS011;15183;51.350;11.102;2024-02-16T09:44:03;18.85;;;12.95;;
27804;SDS011;15183;51.350;11.102;2024-02-16T09:46:30;12.70;;;8.32;;
27804;SDS011;15183;51.350;11.102;2024-02-16T09:49:02;8.35;;;6.10;;
27804;SDS011;15183;51.350;11.102;2024-02-16T09:51:30;8.43;;;4.45;;
27804;SDS011;15183;51.350;11.102;2024-02-16T09:53:57;6.60;;;3.65;;
27804;SDS011;15183;51.350;11.102;2024-02-16T09:56:23;4.72;;;2.97;;
27804;SDS011;15183;51.350;11.102;2024-02-16T09:58:50;18.50;;;11.07;;
27804;SDS011;15183;51.350;11.102;2024-02-16T10:01:18;9.50;;;6.68;;
27804;SDS011;15183;51.350;11.102;2024-02-16T10:03:47;6.43;;;4.88;;
27804;SDS011;15183;51.350;11.102;2024-02-16T10:06:17;14.32;;;8.73;;
27804;SDS011;15183;51.350;11.102;2024-02-16T10:08:47;6.78;;;4.80;;
27804;SDS011;15183;51.350;11.102;2024-02-16T10:11:18;22.17;;;14.75;;
27804;SDS011;15183;51.350;11.102;2024-02-16T10:13:59;10.38;;;7.45;;
27804;SDS011;15183;51.350;11.102;2024-02-16T10:16:28;9.93;;;6.05;;
27804;SDS011;15183;51.350;11.102;2024-02-16T10:19:05;19.30;;;12.20;;
27804;SDS011;15183;51.350;11.102;2024-02-16T10:21:36;14.18;;;9.20;;
27804;SDS011;15183;51.350;11.102;2024-02-16T10:24:04;7.68;;;4.95;;
27804;SDS011;15183;51.350;11.102;2024-02-16T10:26:34;7.88;;;5.20;;
27804;SDS011;15183;51.350;11.102;2024-02-16T10:29:05;5.70;;;3.40;;
27804;SDS011;15183;51.350;11.102;2024-02-16T10:31:34;7.82;;;4.60;;
27804;SDS011;15183;51.350;11.102;2024-02-16T10:34:03;5.70;;;3.75;;
27804;SDS011;15183;51.350;11.102;2024-02-16T10:36:35;6.85;;;4.43;;
27804;SDS011;15183;51.350;11.102;2024-02-16T10:39:04;10.57;;;6.97;;
27804;SDS011;15183;51.350;11.102;2024-02-16T10:41:35;8.50;;;4.22;;
27804;SDS011;15183;51.350;11.102;2024-02-16T10:44:12;4.60;;;3.65;;
27804;SDS011;15183;51.350;11.102;2024-02-16T10:46:38;6.10;;;4.38;;
27804;SDS011;15183;51.350;11.102;2024-02-16T10:49:06;5.53;;;2.67;;
27804;SDS011;15183;51.350;11.102;2024-02-16T10:51:37;12.05;;;6.30;;
27804;SDS011;15183;51.350;11.102;2024-02-16T10:54:12;9.02;;;4.20;;
27804;SDS011;15183;51.350;11.102;2024-02-16T10:56:43;8.82;;;4.80;;
27804;SDS011;15183;51.350;11.102;2024-02-16T10:59:10;6.18;;;4.20;;
27804;SDS011;15183;51.350;11.102;2024-02-16T11:01:41;5.82;;;4.13;;
27804;SDS011;15183;51.350;11.102;2024-02-16T11:04:16;6.63;;;4.25;;
27804;SDS011;15183;51.350;11.102;2024-02-16T11:06:44;3.83;;;2.63;;
27804;SDS011;15183;51.350;11.102;2024-02-16T11:12:02;4.13;;;2.58;;
27804;SDS011;15183;51.350;11.102;2024-02-16T11:14:37;4.30;;;2.45;;
27804;SDS011;15183;51.350;11.102;2024-02-16T11:17:22;3.95;;;1.92;;
27804;SDS011;15183;51.350;11.102;2024-02-16T11:19:50;4.30;;;2.38;;
27804;SDS011;15183;51.350;11.102;2024-02-16T11:22:20;4.72;;;2.38;;
27804;SDS011;15183;51.350;11.102;2024-02-16T11:24:49;2.22;;;1.65;;
27804;SDS011;15183;51.350;11.102;2024-02-16T11:27:18;3.30;;;2.40;;
27804;SDS011;15183;51.350;11.102;2024-02-16T11:29:45;3.85;;;1.80;;
27804;SDS011;15183;51.350;11.102;2024-02-16T11:32:12;5.70;;;3.97;;
27804;SDS011;15183;51.350;11.102;2024-02-16T11:34:39;10.30;;;6.40;;
27804;SDS011;15183;51.350;11.102;2024-02-16T11:37:06;4.43;;;3.10;;
27804;SDS011;15183;51.350;11.102;2024-02-16T11:39:32;4.93;;;2.97;;
27804;SDS011;15183;51.350;11.102;2024-02-16T11:42:02;3.75;;;3.13;;
27804;SDS011;15183;51.350;11.102;2024-02-16T11:44:36;2.78;;;2.25;;
27804;SDS011;15183;51.350;11.102;2024-02-16T11:47:08;2.35;;;2.05;;
27804;SDS011;15183;51.350;11.102;2024-02-16T11:49:40;3.85;;;2.35;;
27804;SDS011;15183;51.350;11.102;2024-02-16T11:52:07;3.10;;;2.22;;
27804;SDS011;15183;51.350;11.102;2024-02-16T11:54:34;4.03;;;2.20;;
27804;SDS011;15183;51.350;11.102;2024-02-16T11:57:03;2.90;;;2.10;;
27804;SDS011;15183;51.350;11.102;2024-02-16T11:59:30;3.10;;;1.92;;
27804;SDS011;15183;51.350;11.102;2024-02-16T12:01:58;1.90;;;1.63;;
27804;SDS011;15183;51.350;11.102;2024-02-16T12:06:58;2.83;;;2.22;;
27804;SDS011;15183;51.350;11.102;2024-02-16T12:09:27;4.65;;;3.47;;
27804;SDS011;15183;51.350;11.102;2024-02-16T12:11:55;4.65;;;2.78;;
27804;SDS011;15183;51.350;11.102;2024-02-16T12:14:22;5.10;;;2.15;;
27804;SDS011;15183;51.350;11.102;2024-02-16T12:16:54;3.70;;;1.92;;
27804;SDS011;15183;51.350;11.102;2024-02-16T12:19:22;3.63;;;2.00;;
27804;SDS011;15183;51.350;11.102;2024-02-16T12:21:53;3.45;;;1.80;;
27804;SDS011;15183;51.350;11.102;2024-02-16T12:24:24;3.25;;;1.90;;
27804;SDS011;15183;51.350;11.102;2024-02-16T12:26:50;2.03;;;1.52;;
27804;SDS011;15183;51.350;11.102;2024-02-16T12:29:17;1.70;;;1.60;;
27804;SDS011;15183;51.350;11.102;2024-02-16T12:31:46;2.13;;;1.45;;
27804;SDS011;15183;51.350;11.102;2024-02-16T12:34:15;1.92;;;1.35;;
27804;SDS011;15183;51.350;11.102;2024-02-16T12:36:41;2.63;;;1.27;;
27804;SDS011;15183;51.350;11.102;2024-02-16T12:39:08;2.05;;;1.50;;
27804;SDS011;15183;51.350;11.102;2024-02-16T12:41:40;3.13;;;1.95;;
27804;SDS011;15183;51.350;11.102;2024-02-16T12:44:08;2.05;;;1.63;;
27804;SDS011;15183;51.350;11.102;2024-02-16T12:46:35;3.28;;;1.50;;
27804;SDS011;15183;51.350;11.102;2024-02-16T12:49:04;7.38;;;1.60;;
27804;SDS011;15183;51.350;11.102;2024-02-16T12:51:31;3.22;;;1.60;;
27804;SDS011;15183;51.350;11.102;2024-02-16T12:53:57;3.72;;;1.40;;
27804;SDS011;15183;51.350;11.102;2024-02-16T12:56:26;2.10;;;1.90;;
27804;SDS011;15183;51.350;11.102;2024-02-16T12:58:52;1.73;;;1.48;;
27804;SDS011;15183;51.350;11.102;2024-02-16T13:01:19;1.67;;;1.20;;
27804;SDS011;15183;51.350;11.102;2024-02-16T13:03:46;2.38;;;1.50;;
27804;SDS011;15183;51.350;11.102;2024-02-16T13:06:13;2.17;;;1.40;;
27804;SDS011;15183;51.350;11.102;2024-02-16T13:08:39;3.78;;;1.40;;
27804;SDS011;15183;51.350;11.102;2024-02-16T13:11:06;5.40;;;1.70;;
27804;SDS011;15183;51.350;11.102;2024-02-16T13:13:32;2.63;;;1.50;;
27804;SDS011;15183;51.350;11.102;2024-02-16T13:15:59;1.88;;;1.40;;
27804;SDS011;15183;51.350;11.102;2024-02-16T13:18:25;3.28;;;1.75;;
27804;SDS011;15183;51.350;11.102;2024-02-16T13:20:52;13.20;;;1.70;;
27804;SDS011;15183;51.350;11.102;2024-02-16T13:23:18;4.40;;;1.35;;
27804;SDS011;15183;51.350;11.102;2024-02-16T13:25:45;3.88;;;1.20;;
27804;SDS011;15183;51.350;11.102;2024-02-16T13:28:11;2.30;;;1.35;;
27804;SDS011;15183;51.350;11.102;2024-02-16T13:30:37;1.83;;;1.30;;
27804;SDS011;15183;51.350;11.102;2024-02-16T13:33:04;2.22;;;1.38;;
27804;SDS011;15183;51.350;11.102;2024-02-16T13:35:31;2.15;;;1.55;;
27804;SDS011;15183;51.350;11.102;2024-02-16T13:37:57;2.40;;;1.23;;
27804;SDS011;15183;51.350;11.102;2024-02-16T13:40:23;2.65;;;1.50;;
27804;SDS011;15183;51.350;11.102;2024-02-16T13:42:50;3.63;;;1.50;;
27804;SDS011;15183;51.350;11.102;2024-02-16T13:45:16;4.50;;;1.30;;
27804;SDS011;15183;51.350;11.102;2024-02-16T13:47:45;5.28;;;2.13;;
27804;SDS011;15183;51.350;11.102;2024-02-16T13:50:13;4.53;;;3.47;;
27804;SDS011;15183;51.350;11.102;2024-02-16T13:52:39;3.15;;;2.38;;
27804;SDS011;15183;51.350;11.102;2024-02-16T13:55:06;3.38;;;2.35;;
27804;SDS011;15183;51.350;11.102;2024-02-16T13:57:33;7.00;;;2.25;;
27804;SDS011;15183;51.350;11.102;2024-02-16T14:00:00;3.88;;;1.95;;
27804;SDS011;15183;51.350;11.102;2024-02-16T14:02:26;3.38;;;1.42;;
27804;SDS011;15183;51.350;11.102;2024-02-16T14:04:53;3.03;;;1.88;;
27804;SDS011;15183;51.350;11.102;2024-02-16T14:07:22;2.78;;;1.98;;
27804;SDS011;15183;51.350;11.102;2024-02-16T14:09:48;3.35;;;1.90;;
27804;SDS011;15183;51.350;11.102;2024-02-16T14:12:17;8.93;;;2.45;;
27804;SDS011;15183;51.350;11.102;2024-02-16T14:14:43;3.97;;;2.90;;
27804;SDS011;15183;51.350;11.102;2024-02-16T14:17:10;10.88;;;5.03;;
27804;SDS011;15183;51.350;11.102;2024-02-16T14:19:36;6.28;;;3.10;;
27804;SDS011;15183;51.350;11.102;2024-02-16T14:22:05;13.48;;;6.05;;
27804;SDS011;15183;51.350;11.102;2024-02-16T14:24:32;5.25;;;2.88;;
27804;SDS011;15183;51.350;11.102;2024-02-16T14:26:59;3.65;;;2.20;;
27804;SDS011;15183;51.350;11.102;2024-02-16T14:29:25;4.57;;;2.58;;
27804;SDS011;15183;51.350;11.102;2024-02-16T14:31:52;1.98;;;1.70;;